Hartly, Delaware
Current Conditions -  °F | °C
As of 8:58 AM on Saturday 25 Oct 2014 (Local Time) from KDOV Reporting Station
Clear Clear  
Wind Chill: 51°   Ceiling: Unl
Heat Index: 51°   Visibility: 10mi
Dew Point: 43°   Wind: 5mph
Humidity: 72%   Direction: 270°W
Pressure: 29.92"   Gusts: NA
Location:  39.17°N, 75.71°W
Report Text: KDOV 251258Z AUTO 27004KT 10SM CLR 11/06 A2992 RMK AO2 SLP135 T01080060
Loading
Personal Weather Stations






























Interactive Weather Map
Tropical Storm Tracking
New forecast layout! Learn more

10-Day Weather Forecast

Advertisements
Track Severe Weather on mobile